createdAt,value
2022-12-12T00:01:14.785Z,14.13
2022-12-12T00:03:43.205Z,11.45
2022-12-12T00:06:11.542Z,13.43
2022-12-12T00:08:41.219Z,13.73
2022-12-12T00:11:09.709Z,13.50
2022-12-12T00:13:38.427Z,13.85
2022-12-12T00:16:07.605Z,11.90
2022-12-12T00:18:36.938Z,13.15
2022-12-12T00:21:06.852Z,10.73
2022-12-12T00:23:35.452Z,10.15
2022-12-12T00:26:08.310Z,15.35
2022-12-12T00:28:36.630Z,12.70
2022-12-12T00:31:05.222Z,12.63
2022-12-12T00:33:33.598Z,12.82
2022-12-12T00:36:01.887Z,12.50
2022-12-12T00:38:30.616Z,12.20
2022-12-12T00:41:01.129Z,12.25
2022-12-12T00:45:59.745Z,11.10
2022-12-12T00:48:28.159Z,12.52
2022-12-12T00:50:57.247Z,13.07
2022-12-12T00:53:25.509Z,14.07
2022-12-12T00:55:57.464Z,13.23
2022-12-12T00:58:26.186Z,13.82
2022-12-12T01:00:55.811Z,12.63
2022-12-12T01:03:24.137Z,14.03
2022-12-12T01:05:52.748Z,13.70
2022-12-12T01:08:21.105Z,12.68
2022-12-12T01:10:49.444Z,14.90
2022-12-12T01:13:17.841Z,13.13
2022-12-12T01:15:46.163Z,13.48
2022-12-12T01:18:15.915Z,13.65
2022-12-12T01:20:44.287Z,15.48
2022-12-12T01:23:13.004Z,12.15
2022-12-12T01:25:41.491Z,14.65
2022-12-12T01:28:10.614Z,12.98
2022-12-12T01:30:38.981Z,14.07
2022-12-12T01:33:07.550Z,14.68
2022-12-12T01:35:37.189Z,14.98
2022-12-12T01:38:05.496Z,15.47
2022-12-12T01:40:33.830Z,14.43
2022-12-12T01:43:02.097Z,14.70
2022-12-12T01:45:57.620Z,15.87
2022-12-12T01:48:28.760Z,14.88
2022-12-12T01:51:01.087Z,14.57
2022-12-12T01:53:31.164Z,15.50
2022-12-12T01:56:00.083Z,15.35
2022-12-12T01:58:28.590Z,12.63
2022-12-12T02:00:56.878Z,14.13
2022-12-12T02:03:25.243Z,14.27
2022-12-12T02:05:56.069Z,14.60
2022-12-12T02:08:27.047Z,15.02
2022-12-12T02:10:55.377Z,15.20
2022-12-12T02:13:26.652Z,13.13
2022-12-12T02:16:01.115Z,14.93
2022-12-12T02:18:33.564Z,14.45
2022-12-12T02:21:12.304Z,14.57
2022-12-12T02:23:58.597Z,14.98
2022-12-12T02:26:53.607Z,13.90
2022-12-12T02:29:40.723Z,14.23
2022-12-12T02:32:17.221Z,14.60
2022-12-12T02:34:50.622Z,12.65
2022-12-12T02:37:24.541Z,14.70
2022-12-12T02:39:59.742Z,14.07
2022-12-12T02:42:30.541Z,13.38
2022-12-12T02:45:01.269Z,14.15
2022-12-12T02:47:32.072Z,14.98
2022-12-12T02:50:05.021Z,13.02
2022-12-12T02:52:33.676Z,14.95
2022-12-12T02:55:02.156Z,14.25
2022-12-12T02:57:30.505Z,13.65
2022-12-12T03:00:02.589Z,13.98
2022-12-12T03:02:49.221Z,14.63
2022-12-12T03:05:49.143Z,14.38
2022-12-12T03:08:29.012Z,13.88
2022-12-12T03:10:59.630Z,14.73
2022-12-12T03:16:09.580Z,13.57
2022-12-12T03:18:43.217Z,13.68
2022-12-12T03:21:17.621Z,13.85
2022-12-12T03:23:48.601Z,14.55
2022-12-12T03:26:20.063Z,14.85
2022-12-12T03:28:51.622Z,13.43
2022-12-12T03:31:23.935Z,11.93
2022-12-12T03:33:57.484Z,14.82
2022-12-12T03:36:28.650Z,15.07
2022-12-12T03:39:01.451Z,13.45
2022-12-12T03:41:35.288Z,15.02
2022-12-12T03:44:07.085Z,13.68
2022-12-12T03:46:40.004Z,14.23
2022-12-12T03:49:13.498Z,13.73
2022-12-12T03:51:45.365Z,13.60
2022-12-12T03:54:19.424Z,14.95
2022-12-12T03:56:51.242Z,14.07
2022-12-12T03:59:27.140Z,15.63
2022-12-12T04:02:00.219Z,13.77
2022-12-12T04:04:33.940Z,14.82
2022-12-12T04:07:05.147Z,15.25
2022-12-12T04:09:50.868Z,15.82
2022-12-12T04:12:39.442Z,14.30
2022-12-12T04:15:37.823Z,13.90
2022-12-12T04:18:14.368Z,15.45
2022-12-12T04:21:05.081Z,14.93
2022-12-12T04:23:38.257Z,14.93
2022-12-12T04:26:29.211Z,14.75
2022-12-12T04:29:05.524Z,13.98
2022-12-12T04:31:36.094Z,14.13
2022-12-12T04:34:08.907Z,15.68
2022-12-12T04:36:38.953Z,15.57
2022-12-12T04:39:08.331Z,15.63
2022-12-12T04:41:37.841Z,16.38
2022-12-12T04:44:09.138Z,15.43
2022-12-12T04:46:38.230Z,16.17
2022-12-12T04:49:09.233Z,16.13
2022-12-12T04:51:42.697Z,15.57
2022-12-12T04:54:13.576Z,16.08
2022-12-12T04:56:44.326Z,16.20
2022-12-12T04:59:13.068Z,15.10
2022-12-12T05:01:51.285Z,15.02
2022-12-12T05:04:26.103Z,15.88
2022-12-12T05:06:59.215Z,15.48
2022-12-12T05:09:27.623Z,15.13
2022-12-12T05:11:56.126Z,15.32
2022-12-12T05:14:24.367Z,15.40
2022-12-12T05:16:55.385Z,16.30
2022-12-12T05:19:23.653Z,15.23
2022-12-12T05:21:51.982Z,12.25
2022-12-12T05:24:21.600Z,13.55
2022-12-12T05:26:49.877Z,15.47
2022-12-12T05:29:18.175Z,14.70
2022-12-12T05:31:46.418Z,14.57
2022-12-12T05:34:14.843Z,16.08
2022-12-12T05:36:43.230Z,13.95
2022-12-12T05:39:11.529Z,15.20
2022-12-12T05:41:41.217Z,14.35
2022-12-12T05:44:09.783Z,16.33
2022-12-12T05:46:38.241Z,16.25
2022-12-12T05:49:06.545Z,16.23
2022-12-12T05:51:34.777Z,15.32
2022-12-12T05:54:03.340Z,16.63
2022-12-12T05:56:31.601Z,16.45
2022-12-12T05:59:01.204Z,15.80
2022-12-12T06:01:29.594Z,15.47
2022-12-12T06:03:57.901Z,15.98
2022-12-12T06:06:26.185Z,14.52
2022-12-12T06:08:54.482Z,15.98
2022-12-12T06:11:22.764Z,17.15
2022-12-12T06:13:51.024Z,15.52
2022-12-12T06:16:21.039Z,15.90
2022-12-12T06:18:52.575Z,15.48
2022-12-12T06:21:22.063Z,14.75
2022-12-12T06:23:50.835Z,15.05
2022-12-12T06:26:20.617Z,15.90
2022-12-12T06:28:49.412Z,14.95
2022-12-12T06:31:18.585Z,15.90
2022-12-12T06:33:48.356Z,14.27
2022-12-12T06:36:23.827Z,17.65
2022-12-12T06:38:52.847Z,15.88
2022-12-12T06:41:22.285Z,15.07
2022-12-12T06:43:50.708Z,12.10
2022-12-12T06:46:21.516Z,12.48
2022-12-12T06:48:51.572Z,13.73
2022-12-12T06:51:22.698Z,14.63
2022-12-12T06:53:51.317Z,14.80
2022-12-12T06:56:22.143Z,14.10
2022-12-12T06:58:51.050Z,13.05
2022-12-12T07:01:21.703Z,13.60
2022-12-12T07:03:52.255Z,14.70
2022-12-12T07:08:49.421Z,12.85
2022-12-12T07:11:19.203Z,12.82
2022-12-12T07:13:47.918Z,12.68
2022-12-12T07:16:16.484Z,13.82
2022-12-12T07:18:44.937Z,13.55
2022-12-12T07:21:16.878Z,12.50
2022-12-12T07:23:45.663Z,10.98
2022-12-12T07:26:16.505Z,12.25
2022-12-12T07:28:45.123Z,11.52
2022-12-12T07:31:15.034Z,13.20
2022-12-12T07:33:44.786Z,12.68
2022-12-12T07:36:16.170Z,13.43
2022-12-12T07:38:44.934Z,11.68
2022-12-12T07:41:15.040Z,11.88
2022-12-12T07:43:45.167Z,11.88
2022-12-12T07:46:16.105Z,10.65
2022-12-12T07:48:45.246Z,11.48
2022-12-12T07:51:15.467Z,9.70
2022-12-12T07:53:43.931Z,12.23
2022-12-12T07:56:13.803Z,11.68
2022-12-12T07:58:42.279Z,12.30
2022-12-12T08:01:14.954Z,10.90
2022-12-12T08:03:44.382Z,11.65
2022-12-12T08:06:16.220Z,10.65
2022-12-12T08:08:44.904Z,12.60
2022-12-12T08:11:16.197Z,13.35
2022-12-12T08:13:44.506Z,11.88
2022-12-12T08:16:15.399Z,12.45
2022-12-12T08:18:43.721Z,12.75
2022-12-12T08:21:15.199Z,11.25
2022-12-12T08:23:44.958Z,9.27
2022-12-12T08:26:16.562Z,9.02
2022-12-12T08:28:49.012Z,10.18
2022-12-12T08:31:17.949Z,9.30
2022-12-12T08:33:46.594Z,9.70
2022-12-12T08:36:18.181Z,9.07
2022-12-12T08:38:46.606Z,11.55
2022-12-12T08:41:15.393Z,11.25
2022-12-12T08:43:44.451Z,10.48
2022-12-12T08:46:17.418Z,12.40
2022-12-12T08:48:46.807Z,11.38
2022-12-12T08:51:16.936Z,12.73
2022-12-12T08:53:45.933Z,12.27
2022-12-12T08:56:14.283Z,12.60
2022-12-12T08:58:42.881Z,12.23
2022-12-12T09:01:12.342Z,12.27
2022-12-12T09:03:40.905Z,13.18
2022-12-12T09:06:10.179Z,12.95
2022-12-12T09:08:40.123Z,13.25
2022-12-12T09:11:08.867Z,13.23
2022-12-12T09:13:37.391Z,12.85
2022-12-12T09:16:06.803Z,13.38
2022-12-12T09:18:35.501Z,14.57
2022-12-12T09:21:04.251Z,13.88
2022-12-12T09:23:32.731Z,12.00
2022-12-12T09:26:07.009Z,12.95
2022-12-12T09:28:35.899Z,13.02
2022-12-12T09:31:05.937Z,12.15
2022-12-12T09:33:34.533Z,11.60
2022-12-12T09:36:03.866Z,13.32
2022-12-12T09:38:32.241Z,12.95
2022-12-12T09:41:02.700Z,12.15
2022-12-12T09:43:34.979Z,13.40
2022-12-12T09:46:04.215Z,13.00
2022-12-12T09:48:41.971Z,13.43
2022-12-12T09:51:11.045Z,12.32
2022-12-12T09:53:40.096Z,12.75
2022-12-12T09:56:11.900Z,12.75
2022-12-12T09:58:50.180Z,13.50
2022-12-12T10:03:57.581Z,12.10
2022-12-12T10:06:36.947Z,13.52
2022-12-12T10:09:23.709Z,13.93
2022-12-12T10:11:54.831Z,11.57
2022-12-12T10:14:29.062Z,11.38
2022-12-12T10:16:58.625Z,12.90
2022-12-12T10:19:30.863Z,13.30
2022-12-12T10:22:07.629Z,13.60
2022-12-12T10:24:40.271Z,12.25
2022-12-12T10:27:10.709Z,13.50
2022-12-12T10:29:41.755Z,13.13
2022-12-12T10:32:15.548Z,11.88
2022-12-12T10:34:56.037Z,12.82
2022-12-12T10:37:36.230Z,13.73
2022-12-12T10:40:18.686Z,12.85
2022-12-12T10:42:50.322Z,12.77
2022-12-12T10:45:32.489Z,12.30
2022-12-12T10:48:00.739Z,12.65
2022-12-12T10:50:33.927Z,11.88
2022-12-12T10:53:03.134Z,12.13
2022-12-12T10:55:38.562Z,11.68
2022-12-12T10:58:07.759Z,11.63
2022-12-12T11:00:39.651Z,12.38
2022-12-12T11:03:22.367Z,12.68
2022-12-12T11:05:50.681Z,12.05
2022-12-12T11:08:22.196Z,11.90
2022-12-12T11:11:05.875Z,12.10
2022-12-12T11:13:41.059Z,13.60
2022-12-12T11:16:15.388Z,13.40
2022-12-12T11:18:58.282Z,12.60
2022-12-12T11:21:26.823Z,12.80
2022-12-12T11:23:56.432Z,11.75
2022-12-12T11:26:25.033Z,11.70
2022-12-12T11:28:56.140Z,11.15
2022-12-12T11:31:28.674Z,11.90
2022-12-12T11:33:59.324Z,12.68
2022-12-12T11:38:59.182Z,12.95
2022-12-12T11:41:27.436Z,10.75
2022-12-12T11:44:00.214Z,10.20
2022-12-12T11:46:31.474Z,11.15
2022-12-12T11:49:01.636Z,10.73
2022-12-12T11:51:35.808Z,11.50
2022-12-12T11:54:05.695Z,10.98
2022-12-12T11:56:43.469Z,11.05
2022-12-12T11:59:30.926Z,11.50
2022-12-12T12:02:07.692Z,11.80
2022-12-12T12:04:49.602Z,10.70
2022-12-12T12:07:34.409Z,10.68
2022-12-12T12:10:08.232Z,10.90
2022-12-12T12:12:47.997Z,11.23
2022-12-12T12:15:25.668Z,11.60
2022-12-12T12:18:05.092Z,12.23
2022-12-12T12:20:58.532Z,11.73
2022-12-12T12:23:39.201Z,11.20
2022-12-12T12:26:12.496Z,11.32
2022-12-12T12:29:16.696Z,12.07
2022-12-12T12:31:52.039Z,11.57
2022-12-12T12:34:23.681Z,11.05
2022-12-12T12:37:04.182Z,10.70
2022-12-12T12:39:52.164Z,10.35
2022-12-12T12:42:32.824Z,9.57
2022-12-12T12:47:36.864Z,9.80
2022-12-12T12:50:14.604Z,10.32
2022-12-12T12:52:45.115Z,10.32
2022-12-12T12:55:17.356Z,10.13
2022-12-12T12:57:47.307Z,10.00
2022-12-12T13:00:18.304Z,10.77
2022-12-12T13:02:52.248Z,10.40
2022-12-12T13:05:25.182Z,10.80
2022-12-12T13:07:57.776Z,10.13
2022-12-12T13:10:28.583Z,9.48
2022-12-12T13:12:59.375Z,9.80
2022-12-12T13:15:30.283Z,9.38
2022-12-12T13:18:04.321Z,9.75
2022-12-12T13:20:37.261Z,12.02
2022-12-12T13:23:16.453Z,11.05
2022-12-12T13:25:50.768Z,12.65
2022-12-12T13:28:22.267Z,13.73
2022-12-12T13:31:14.937Z,18.27
2022-12-12T13:33:46.261Z,11.77
2022-12-12T13:36:24.501Z,10.02
2022-12-12T13:38:58.702Z,13.88
2022-12-12T13:41:27.236Z,10.20
2022-12-12T13:43:58.210Z,9.98
2022-12-12T13:46:42.022Z,9.27
2022-12-12T13:49:24.904Z,9.50
2022-12-12T13:52:24.792Z,10.30
2022-12-12T13:55:12.691Z,10.00
2022-12-12T13:58:10.262Z,9.95
2022-12-12T14:00:39.137Z,9.15
2022-12-12T14:03:34.776Z,9.73
2022-12-12T14:06:12.027Z,9.88
2022-12-12T14:08:49.619Z,9.63
2022-12-12T14:11:29.139Z,8.82
2022-12-12T14:14:06.596Z,10.20
2022-12-12T14:16:35.550Z,10.10
2022-12-12T14:19:09.804Z,10.68
2022-12-12T14:21:44.449Z,9.77
2022-12-12T14:27:18.535Z,11.57
2022-12-12T14:29:46.984Z,9.38
2022-12-12T14:32:36.961Z,9.82
2022-12-12T14:35:24.045Z,11.07
2022-12-12T14:37:58.115Z,13.18
2022-12-12T14:40:28.336Z,13.38
2022-12-12T14:43:19.939Z,13.52
2022-12-12T14:45:57.524Z,10.70
2022-12-12T14:48:28.717Z,11.20
2022-12-12T14:51:09.223Z,14.15
2022-12-12T14:53:47.999Z,14.02
2022-12-12T14:56:18.181Z,13.32
2022-12-12T14:58:51.696Z,12.32
2022-12-12T15:01:31.288Z,16.15
2022-12-12T15:04:00.453Z,13.40
2022-12-12T15:06:31.360Z,11.75
2022-12-12T15:09:11.006Z,11.95
2022-12-12T15:11:39.400Z,11.77
2022-12-12T15:14:21.384Z,13.05
2022-12-12T15:16:53.074Z,11.82
2022-12-12T15:19:26.956Z,15.20
2022-12-12T15:21:55.638Z,14.25
2022-12-12T15:24:25.794Z,14.32
2022-12-12T15:26:56.363Z,14.63
2022-12-12T15:32:01.041Z,19.63
2022-12-12T15:34:36.720Z,13.20
2022-12-12T15:37:13.133Z,12.93
2022-12-12T15:39:41.404Z,14.88
2022-12-12T15:42:11.133Z,13.23
2022-12-12T15:44:41.212Z,15.40
2022-12-12T15:47:11.196Z,22.23
2022-12-12T15:49:41.182Z,28.83
2022-12-12T15:52:11.668Z,20.45
2022-12-12T15:54:47.022Z,16.50
2022-12-12T15:57:18.094Z,16.88
2022-12-12T15:59:53.256Z,20.10
2022-12-12T16:02:27.291Z,20.48
2022-12-12T16:04:57.567Z,16.15
2022-12-12T16:07:25.904Z,17.17
2022-12-12T16:10:01.905Z,21.40
2022-12-12T16:12:55.440Z,22.70
2022-12-12T16:15:34.268Z,16.55
2022-12-12T16:18:05.091Z,12.40
2022-12-12T16:20:33.626Z,13.73
2022-12-12T16:23:18.549Z,13.20
2022-12-12T16:25:46.863Z,11.93
2022-12-12T16:28:25.596Z,13.35
2022-12-12T16:30:58.265Z,14.80
2022-12-12T16:33:30.104Z,14.18
2022-12-12T16:36:00.484Z,16.60
2022-12-12T16:38:29.503Z,16.48
2022-12-12T16:41:00.492Z,14.60
2022-12-12T16:43:29.271Z,13.40
2022-12-12T16:45:59.742Z,14.23
2022-12-12T16:50:59.609Z,16.98
2022-12-12T16:53:28.255Z,17.48
2022-12-12T16:55:56.874Z,14.23
2022-12-12T16:58:25.596Z,14.45
2022-12-12T17:00:54.646Z,12.68
2022-12-12T17:03:24.664Z,14.13
2022-12-12T17:05:53.746Z,14.90
2022-12-12T17:08:22.171Z,14.85
2022-12-12T17:10:53.162Z,15.07
2022-12-12T17:13:40.486Z,15.63
2022-12-12T17:16:09.021Z,16.35
2022-12-12T17:18:39.263Z,18.25
2022-12-12T17:21:07.538Z,16.17
2022-12-12T17:23:35.883Z,15.13
2022-12-12T17:26:05.230Z,15.35
2022-12-12T17:28:34.632Z,17.25
2022-12-12T17:31:03.303Z,13.30
2022-12-12T17:33:31.592Z,12.25
2022-12-12T17:36:02.594Z,12.68
2022-12-12T17:38:31.163Z,13.25
2022-12-12T17:41:02.920Z,12.73
2022-12-12T17:43:31.169Z,14.02
2022-12-12T17:46:00.550Z,16.10
2022-12-12T17:48:30.731Z,16.58
2022-12-12T17:51:01.870Z,16.77
2022-12-12T17:53:32.473Z,16.17
2022-12-12T17:56:01.581Z,16.80
2022-12-12T17:58:37.175Z,17.48
2022-12-12T18:01:12.382Z,21.00
2022-12-12T18:03:40.802Z,19.08
2022-12-12T18:06:10.737Z,19.02
2022-12-12T18:08:39.349Z,17.27
2022-12-12T18:11:08.889Z,16.90
2022-12-12T18:13:38.556Z,17.73
2022-12-12T18:16:08.130Z,17.67
2022-12-12T18:18:36.735Z,20.85
2022-12-12T18:21:05.777Z,23.08
2022-12-12T18:23:35.403Z,19.45
2022-12-12T18:26:05.327Z,18.00
2022-12-12T18:28:33.711Z,17.88
2022-12-12T18:31:02.523Z,16.20
2022-12-12T18:33:30.853Z,17.90
2022-12-12T18:36:03.695Z,18.23
2022-12-12T18:38:32.700Z,18.02
2022-12-12T18:41:02.333Z,18.60
2022-12-12T18:43:31.113Z,18.42
2022-12-12T18:46:03.095Z,18.58
2022-12-12T18:48:31.537Z,18.55
2022-12-12T18:51:05.204Z,18.60
2022-12-12T18:53:33.744Z,18.80
2022-12-12T18:56:05.903Z,20.17
2022-12-12T18:58:34.575Z,19.75
2022-12-12T19:01:06.511Z,18.02
2022-12-12T19:03:35.535Z,16.02
2022-12-12T19:06:05.634Z,14.73
2022-12-12T19:08:33.938Z,13.05
2022-12-12T19:11:03.831Z,14.65
2022-12-12T19:13:32.409Z,12.60
2022-12-12T19:16:04.821Z,16.73
2022-12-12T19:18:33.339Z,18.98
2022-12-12T19:21:05.115Z,17.73
2022-12-12T19:23:33.424Z,18.33
2022-12-12T19:26:06.059Z,17.52
2022-12-12T19:28:34.820Z,16.80
2022-12-12T19:31:07.503Z,19.08
2022-12-12T19:33:35.831Z,16.27
2022-12-12T19:36:11.402Z,14.52
2022-12-12T19:38:39.689Z,17.92
2022-12-12T19:41:10.212Z,26.27
2022-12-12T19:43:38.714Z,17.90
2022-12-12T19:46:08.943Z,15.05
2022-12-12T19:48:37.479Z,16.17
2022-12-12T19:51:07.742Z,16.85
2022-12-12T19:53:39.631Z,17.05
2022-12-12T19:56:09.525Z,17.15
2022-12-12T19:58:38.879Z,15.10
2022-12-12T20:01:08.890Z,15.70
2022-12-12T20:03:37.333Z,17.75
2022-12-12T20:06:08.458Z,18.80
2022-12-12T20:08:37.976Z,17.90
2022-12-12T20:11:07.929Z,17.67
2022-12-12T20:13:37.742Z,19.23
2022-12-12T20:16:07.167Z,20.73
2022-12-12T20:18:35.630Z,19.73
2022-12-12T20:21:04.660Z,17.20
2022-12-12T20:23:34.554Z,18.63
2022-12-12T20:26:04.015Z,17.35
2022-12-12T20:28:32.298Z,18.80
2022-12-12T20:31:06.808Z,19.20
2022-12-12T20:33:35.314Z,19.52
2022-12-12T20:36:04.566Z,18.13
2022-12-12T20:38:33.784Z,16.67
2022-12-12T20:41:02.690Z,14.60
2022-12-12T20:43:31.031Z,16.80
2022-12-12T20:45:59.339Z,16.67
2022-12-12T20:48:29.080Z,16.50
2022-12-12T20:50:58.892Z,16.05
2022-12-12T20:53:29.062Z,18.88
2022-12-12T20:56:09.222Z,16.40
2022-12-12T20:58:39.080Z,17.15
2022-12-12T21:01:11.219Z,19.35
2022-12-12T21:03:41.576Z,23.00
2022-12-12T21:08:41.492Z,19.50
2022-12-12T21:11:10.171Z,23.27
2022-12-12T21:13:38.406Z,19.63
2022-12-12T21:16:10.773Z,20.30
2022-12-12T21:18:40.559Z,21.05
2022-12-12T21:21:12.086Z,16.90
2022-12-12T21:23:40.873Z,18.40
2022-12-12T21:26:16.698Z,18.63
2022-12-12T21:28:47.670Z,17.08
2022-12-12T21:31:18.194Z,14.93
2022-12-12T21:33:48.351Z,16.13
2022-12-12T21:36:18.068Z,20.08
2022-12-12T21:38:46.470Z,18.95
2022-12-12T21:41:16.191Z,17.50
2022-12-12T21:43:45.997Z,16.83
2022-12-12T21:46:15.486Z,16.27
2022-12-12T21:48:43.787Z,17.38
2022-12-12T21:51:15.785Z,18.40
2022-12-12T21:53:44.270Z,20.60
2022-12-12T21:56:15.818Z,21.73
2022-12-12T21:58:45.904Z,19.88
2022-12-12T22:01:15.966Z,19.88
2022-12-12T22:03:44.641Z,20.15
2022-12-12T22:06:15.337Z,24.48
2022-12-12T22:08:44.068Z,19.60
2022-12-12T22:11:12.507Z,18.73
2022-12-12T22:13:41.302Z,17.88
2022-12-12T22:16:12.826Z,22.08
2022-12-12T22:18:41.337Z,20.85
2022-12-12T22:21:11.322Z,21.52
2022-12-12T22:23:40.868Z,23.42
2022-12-12T22:26:16.153Z,24.55
2022-12-12T22:28:44.470Z,22.13
2022-12-12T22:31:12.861Z,21.75
2022-12-12T22:33:41.299Z,22.23
2022-12-12T22:36:11.054Z,20.40
2022-12-12T22:38:40.776Z,18.73
2022-12-12T22:41:09.214Z,18.30
2022-12-12T22:43:37.448Z,21.20
2022-12-12T22:46:06.978Z,20.10
2022-12-12T22:48:36.219Z,21.83
2022-12-12T22:51:13.584Z,19.58
2022-12-12T22:53:44.562Z,21.60
2022-12-12T22:56:13.417Z,24.25
2022-12-12T22:58:41.898Z,26.58
2022-12-12T23:01:12.571Z,33.92
2022-12-12T23:03:41.027Z,32.13
2022-12-12T23:06:12.290Z,30.92
2022-12-12T23:08:40.544Z,26.02
2022-12-12T23:11:13.662Z,24.88
2022-12-12T23:13:44.244Z,24.58
2022-12-12T23:16:14.575Z,26.13
2022-12-12T23:21:16.695Z,26.92
2022-12-12T23:23:45.684Z,25.40
2022-12-12T23:26:17.112Z,26.73
2022-12-12T23:28:45.894Z,24.63
2022-12-12T23:31:15.879Z,23.58
2022-12-12T23:33:44.129Z,24.15
2022-12-12T23:36:14.077Z,23.23
2022-12-12T23:38:42.618Z,23.90
2022-12-12T23:41:13.266Z,24.02
2022-12-12T23:43:43.246Z,25.42
2022-12-12T23:46:28.415Z,24.25
2022-12-12T23:48:57.710Z,17.83
2022-12-12T23:51:27.243Z,18.30
2022-12-12T23:53:56.221Z,16.02
2022-12-12T23:56:24.510Z,20.02
2022-12-12T23:58:54.335Z,21.70
